Flight Track Log - Related Links

Times and Time Zones

All times are in EDT time to prevent confusion due to time zone crossing. See the N173AA flight status page for this flight to view local times or setup timezone preferences in your user account.

Time Position Orientation Groundspeed Altitude Reporting Facility
EDT Latitude Longitude Course Direction KTS MPH feet Rate Location/Type
Fri 11:06:24 PM 35.6847 -77.4253 278° West 177 204 4,900  Level Washington Center
Fri 11:07:28 PM 35.6917 -77.4839 278° West 171 197 7,000 762 Climbing Washington Center
Fri 11:08:30 PM 35.6933 -77.5664 271° West 232 267 6,500 -244 Descending Washington Center
Fri 11:09:31 PM 35.7069 -77.6542 281° West 257 296 6,500  Level Washington Center
Fri 11:10:32 PM 35.7244 -77.7383 284° West 257 296 6,500 -48 Level Washington Center
Fri 11:11:35 PM 35.7433 -77.8458 282° West 254 292 6,400 -50 Descending Washington Center
Fri 11:12:33 PM 35.7581 -77.9247 283° West 257 296 6,400  Level Washington Center
Fri 11:13:36 PM 35.7692 -78.0114 279° West 256 295 6,400  Level Washington Center
Fri 11:14:37 PM 35.7803 -78.0958 279° West 256 295 6,400 49 Level Washington Center
Fri 11:15:38 PM 35.7919 -78.1811 280° West 256 295 6,500  Climbing Washington Center
Fri 11:16:39 PM 35.8014 -78.2681 278° West 256 295 6,400 -50 Descending Washington Center
Fri 11:17:39 PM 35.8133 -78.3556 280° West 256 295 6,400  Level Washington Center
Fri 11:17:51 PM 35.8175 -78.3847 280° West 261 300 6,400  Level Washington Center
Fri 11:18:41 PM 35.8311 -78.4592 283° West 256 295 6,400  Level Washington Center
Fri 11:18:53 PM 35.8314 -78.4714 272° West 261 300 6,400 -1,583 Level Washington Center
Fri 11:19:53 PM 35.8664 -78.5531 298° West 257 296 4,500 -1,622 Descending Washington Center
Fri 11:20:44 PM 35.9033 -78.5978 316° Northwest 243 280 3,400 -738 Descending Washington Center
Fri 11:21:55 PM 35.9350 -78.6597 302° West 168 193 3,000 -537 Descending Washington Center
Fri 11:22:47 PM 35.9303 -78.7056 263° West 181 208 2,300 -956 Descending Washington Center
Fri 11:23:48 PM 35.8997 -78.7550 233° Southwest 183 211 1,200 -1,233 Descending Washington Center
Fri 11:24:00 PM 35.8881 -78.7672 220° Southwest 160 184 800 -800 Descending Washington Center
Fri 11:24:48 PM 35.8686 -78.7922 226° Southwest 167 192 400 -500 Descending Washington Center
Fri 11:26:00 PM 35.8667 -78.7833 284° West  Level FlightAware Approximate

Login

Don't have an account? Register now (free) for customized features, flight alerts, and more!